sensor_id;sensor_type;location;lat;lon;timestamp;temperature;humidity
35463;DHT22;21578;47.892;9.970;2022-08-18T00:03:54;18.00;96.60
35463;DHT22;21578;47.892;9.970;2022-08-18T00:08:41;17.90;96.60
35463;DHT22;21578;47.892;9.970;2022-08-18T00:13:29;17.80;96.60
35463;DHT22;21578;47.892;9.970;2022-08-18T00:18:16;17.70;96.60
35463;DHT22;21578;47.892;9.970;2022-08-18T00:23:03;17.70;96.60
35463;DHT22;21578;47.892;9.970;2022-08-18T00:27:50;17.70;96.60
35463;DHT22;21578;47.892;9.970;2022-08-18T00:32:41;17.50;96.60
35463;DHT22;21578;47.892;9.970;2022-08-18T00:37:28;17.50;96.60
35463;DHT22;21578;47.892;9.970;2022-08-18T00:42:17;17.50;96.60
35463;DHT22;21578;47.892;9.970;2022-08-18T00:47:05;17.40;96.60
35463;DHT22;21578;47.892;9.970;2022-08-18T00:51:54;17.30;96.60
35463;DHT22;21578;47.892;9.970;2022-08-18T00:56:45;17.30;96.60
35463;DHT22;21578;47.892;9.970;2022-08-18T01:01:33;17.30;96.60
35463;DHT22;21578;47.892;9.970;2022-08-18T01:06:26;17.30;96.60
35463;DHT22;21578;47.892;9.970;2022-08-18T01:11:15;17.30;96.60
35463;DHT22;21578;47.892;9.970;2022-08-18T01:16:02;17.30;96.60
35463;DHT22;21578;47.892;9.970;2022-08-18T01:21:14;17.30;96.60
35463;DHT22;21578;47.892;9.970;2022-08-18T01:26:21;17.20;96.60
35463;DHT22;21578;47.892;9.970;2022-08-18T01:31:10;17.20;96.60
35463;DHT22;21578;47.892;9.970;2022-08-18T01:35:59;17.20;96.60
35463;DHT22;21578;47.892;9.970;2022-08-18T01:40:47;17.10;96.60
35463;DHT22;21578;47.892;9.970;2022-08-18T01:45:36;17.10;96.60
35463;DHT22;21578;47.892;9.970;2022-08-18T01:50:23;17.10;96.60
35463;DHT22;21578;47.892;9.970;2022-08-18T01:55:10;17.00;96.60
35463;DHT22;21578;47.892;9.970;2022-08-18T01:59:57;17.00;96.60
35463;DHT22;21578;47.892;9.970;2022-08-18T02:04:47;16.90;96.60
35463;DHT22;21578;47.892;9.970;2022-08-18T02:09:37;16.90;96.60
35463;DHT22;21578;47.892;9.970;2022-08-18T02:14:24;16.80;96.60
35463;DHT22;21578;47.892;9.970;2022-08-18T02:19:11;16.80;96.60
35463;DHT22;21578;47.892;9.970;2022-08-18T02:24:00;16.80;96.60
35463;DHT22;21578;47.892;9.970;2022-08-18T02:28:47;16.50;96.60
35463;DHT22;21578;47.892;9.970;2022-08-18T02:33:34;16.60;96.60
35463;DHT22;21578;47.892;9.970;2022-08-18T02:38:21;16.60;96.60
35463;DHT22;21578;47.892;9.970;2022-08-18T02:43:10;16.60;96.60
35463;DHT22;21578;47.892;9.970;2022-08-18T02:47:57;16.60;96.60
35463;DHT22;21578;47.892;9.970;2022-08-18T02:52:43;16.60;96.60
35463;DHT22;21578;47.892;9.970;2022-08-18T02:57:30;16.40;96.60
35463;DHT22;21578;47.892;9.970;2022-08-18T03:02:19;16.30;96.60
35463;DHT22;21578;47.892;9.970;2022-08-18T03:07:07;16.30;96.60
35463;DHT22;21578;47.892;9.970;2022-08-18T03:11:54;16.30;96.60
35463;DHT22;21578;47.892;9.970;2022-08-18T03:16:45;16.20;96.60
35463;DHT22;21578;47.892;9.970;2022-08-18T03:21:34;16.20;96.60
35463;DHT22;21578;47.892;9.970;2022-08-18T03:26:23;16.40;96.60
35463;DHT22;21578;47.892;9.970;2022-08-18T03:31:11;16.30;96.60
35463;DHT22;21578;47.892;9.970;2022-08-18T03:36:03;16.20;96.60
35463;DHT22;21578;47.892;9.970;2022-08-18T03:40:52;16.30;96.60
35463;DHT22;21578;47.892;9.970;2022-08-18T03:45:38;16.30;96.60
35463;DHT22;21578;47.892;9.970;2022-08-18T03:50:26;16.20;96.60
35463;DHT22;21578;47.892;9.970;2022-08-18T03:55:13;16.20;96.60
35463;DHT22;21578;47.892;9.970;2022-08-18T04:00:02;16.20;96.60
35463;DHT22;21578;47.892;9.970;2022-08-18T04:04:49;16.20;96.60
35463;DHT22;21578;47.892;9.970;2022-08-18T04:09:37;16.20;96.60
35463;DHT22;21578;47.892;9.970;2022-08-18T04:14:25;16.10;96.60
35463;DHT22;21578;47.892;9.970;2022-08-18T04:19:16;16.10;96.60
35463;DHT22;21578;47.892;9.970;2022-08-18T04:24:04;16.10;96.60
35463;DHT22;21578;47.892;9.970;2022-08-18T04:28:51;16.10;96.60
35463;DHT22;21578;47.892;9.970;2022-08-18T04:33:39;16.20;96.60
35463;DHT22;21578;47.892;9.970;2022-08-18T04:38:28;16.00;96.60
35463;DHT22;21578;47.892;9.970;2022-08-18T04:43:15;15.90;96.60
35463;DHT22;21578;47.892;9.970;2022-08-18T04:48:02;15.90;96.60
35463;DHT22;21578;47.892;9.970;2022-08-18T04:52:49;16.00;96.60
35463;DHT22;21578;47.892;9.970;2022-08-18T04:58:00;15.90;96.60
35463;DHT22;21578;47.892;9.970;2022-08-18T05:02:47;15.90;96.60
35463;DHT22;21578;47.892;9.970;2022-08-18T05:07:34;15.90;96.60
35463;DHT22;21578;47.892;9.970;2022-08-18T05:12:21;15.90;96.60
35463;DHT22;21578;47.892;9.970;2022-08-18T05:17:10;15.90;96.60
35463;DHT22;21578;47.892;9.970;2022-08-18T05:21:58;16.10;96.60
35463;DHT22;21578;47.892;9.970;2022-08-18T05:26:45;16.30;96.60
35463;DHT22;21578;47.892;9.970;2022-08-18T05:31:32;16.20;96.60
35463;DHT22;21578;47.892;9.970;2022-08-18T05:36:33;16.30;96.60
35463;DHT22;21578;47.892;9.970;2022-08-18T05:41:27;16.40;96.60
35463;DHT22;21578;47.892;9.970;2022-08-18T05:46:19;16.50;96.60
35463;DHT22;21578;47.892;9.970;2022-08-18T05:51:14;16.60;96.60
35463;DHT22;21578;47.892;9.970;2022-08-18T05:56:04;16.60;96.60
35463;DHT22;21578;47.892;9.970;2022-08-18T06:01:23;16.70;96.60
35463;DHT22;21578;47.892;9.970;2022-08-18T06:06:17;16.80;96.60
35463;DHT22;21578;47.892;9.970;2022-08-18T06:11:05;17.00;96.60
35463;DHT22;21578;47.892;9.970;2022-08-18T06:15:57;17.10;96.60
35463;DHT22;21578;47.892;9.970;2022-08-18T06:21:04;17.10;96.60
35463;DHT22;21578;47.892;9.970;2022-08-18T06:26:02;17.10;96.60
35463;DHT22;21578;47.892;9.970;2022-08-18T06:30:58;17.10;96.60
35463;DHT22;21578;47.892;9.970;2022-08-18T06:35:49;16.90;96.60
35463;DHT22;21578;47.892;9.970;2022-08-18T06:40:37;16.90;96.60
35463;DHT22;21578;47.892;9.970;2022-08-18T06:45:28;17.00;96.60
35463;DHT22;21578;47.892;9.970;2022-08-18T06:50:21;17.00;96.60
35463;DHT22;21578;47.892;9.970;2022-08-18T06:55:15;16.90;96.60
35463;DHT22;21578;47.892;9.970;2022-08-18T07:00:09;17.00;96.60
35463;DHT22;21578;47.892;9.970;2022-08-18T07:05:12;17.10;96.60
35463;DHT22;21578;47.892;9.970;2022-08-18T07:10:26;17.10;96.60
35463;DHT22;21578;47.892;9.970;2022-08-18T07:15:22;17.10;96.60
35463;DHT22;21578;47.892;9.970;2022-08-18T07:20:18;17.30;96.60
35463;DHT22;21578;47.892;9.970;2022-08-18T07:25:20;17.30;96.60
35463;DHT22;21578;47.892;9.970;2022-08-18T07:30:11;17.30;96.60
35463;DHT22;21578;47.892;9.970;2022-08-18T07:35:03;17.30;96.60
35463;DHT22;21578;47.892;9.970;2022-08-18T07:40:00;17.30;96.60
35463;DHT22;21578;47.892;9.970;2022-08-18T07:44:55;17.50;96.60
35463;DHT22;21578;47.892;9.970;2022-08-18T07:49:45;17.70;96.60
35463;DHT22;21578;47.892;9.970;2022-08-18T07:54:42;17.80;96.60
35463;DHT22;21578;47.892;9.970;2022-08-18T07:59:36;17.90;96.60
35463;DHT22;21578;47.892;9.970;2022-08-18T08:04:37;18.20;96.60
35463;DHT22;21578;47.892;9.970;2022-08-18T08:09:35;18.50;96.60
35463;DHT22;21578;47.892;9.970;2022-08-18T08:14:50;18.40;96.60
35463;DHT22;21578;47.892;9.970;2022-08-18T08:20:00;18.50;96.60
35463;DHT22;21578;47.892;9.970;2022-08-18T08:25:00;18.40;96.60
35463;DHT22;21578;47.892;9.970;2022-08-18T08:29:57;18.50;96.60
35463;DHT22;21578;47.892;9.970;2022-08-18T08:34:50;18.80;96.60
35463;DHT22;21578;47.892;9.970;2022-08-18T08:39:41;19.00;96.60
35463;DHT22;21578;47.892;9.970;2022-08-18T08:44:34;19.20;96.60
35463;DHT22;21578;47.892;9.970;2022-08-18T08:49:30;19.20;96.60
35463;DHT22;21578;47.892;9.970;2022-08-18T08:54:25;19.30;96.20
35463;DHT22;21578;47.892;9.970;2022-08-18T08:59:16;19.50;96.60
35463;DHT22;21578;47.892;9.970;2022-08-18T09:04:17;19.80;96.20
35463;DHT22;21578;47.892;9.970;2022-08-18T09:09:25;19.90;95.50
35463;DHT22;21578;47.892;9.970;2022-08-18T09:20:00;20.10;93.90
35463;DHT22;21578;47.892;9.970;2022-08-18T09:24:54;20.30;91.90
35463;DHT22;21578;47.892;9.970;2022-08-18T09:29:48;20.30;91.00
35463;DHT22;21578;47.892;9.970;2022-08-18T09:34:44;20.60;90.90
35463;DHT22;21578;47.892;9.970;2022-08-18T09:39:37;20.70;91.00
35463;DHT22;21578;47.892;9.970;2022-08-18T09:45:06;20.70;90.00
35463;DHT22;21578;47.892;9.970;2022-08-18T09:49:55;21.00;89.90
35463;DHT22;21578;47.892;9.970;2022-08-18T09:54:51;21.20;89.00
35463;DHT22;21578;47.892;9.970;2022-08-18T10:05:27;21.70;87.30
35463;DHT22;21578;47.892;9.970;2022-08-18T10:10:21;21.90;87.40
35463;DHT22;21578;47.892;9.970;2022-08-18T10:15:35;21.70;87.80
35463;DHT22;21578;47.892;9.970;2022-08-18T10:20:35;21.60;89.10
35463;DHT22;21578;47.892;9.970;2022-08-18T10:25:35;21.40;89.20
35463;DHT22;21578;47.892;9.970;2022-08-18T10:30:43;21.60;90.80
35463;DHT22;21578;47.892;9.970;2022-08-18T10:35:54;21.80;89.80
35463;DHT22;21578;47.892;9.970;2022-08-18T10:40:42;21.90;88.60
35463;DHT22;21578;47.892;9.970;2022-08-18T10:45:44;22.10;87.20
35463;DHT22;21578;47.892;9.970;2022-08-18T10:50:38;22.20;88.00
35463;DHT22;21578;47.892;9.970;2022-08-18T10:55:45;22.20;86.30
35463;DHT22;21578;47.892;9.970;2022-08-18T11:00:44;22.10;86.40
35463;DHT22;21578;47.892;9.970;2022-08-18T11:05:33;21.90;88.10
35463;DHT22;21578;47.892;9.970;2022-08-18T11:10:23;21.80;87.30
35463;DHT22;21578;47.892;9.970;2022-08-18T11:15:24;22.00;88.20
35463;DHT22;21578;47.892;9.970;2022-08-18T11:20:15;22.00;88.20
35463;DHT22;21578;47.892;9.970;2022-08-18T11:25:05;22.30;87.40
35463;DHT22;21578;47.892;9.970;2022-08-18T11:30:04;22.60;87.30
35463;DHT22;21578;47.892;9.970;2022-08-18T11:35:02;22.50;85.90
35463;DHT22;21578;47.892;9.970;2022-08-18T11:39:51;22.40;86.30
35463;DHT22;21578;47.892;9.970;2022-08-18T11:44:38;22.50;85.10
35463;DHT22;21578;47.892;9.970;2022-08-18T11:49:29;23.00;84.90
35463;DHT22;21578;47.892;9.970;2022-08-18T11:54:21;22.70;84.80
35463;DHT22;21578;47.892;9.970;2022-08-18T11:59:30;22.50;84.20
35463;DHT22;21578;47.892;9.970;2022-08-18T12:04:24;22.50;85.20
35463;DHT22;21578;47.892;9.970;2022-08-18T12:09:17;22.50;85.60
35463;DHT22;21578;47.892;9.970;2022-08-18T12:14:09;22.40;84.40
35463;DHT22;21578;47.892;9.970;2022-08-18T12:19:02;22.60;83.80
35463;DHT22;21578;47.892;9.970;2022-08-18T12:23:49;22.70;83.90
35463;DHT22;21578;47.892;9.970;2022-08-18T12:28:36;22.20;86.10
35463;DHT22;21578;47.892;9.970;2022-08-18T12:33:26;22.20;87.50
35463;DHT22;21578;47.892;9.970;2022-08-18T12:38:13;22.30;87.10
35463;DHT22;21578;47.892;9.970;2022-08-18T12:43:02;22.20;85.70
35463;DHT22;21578;47.892;9.970;2022-08-18T12:47:49;22.20;86.50
35463;DHT22;21578;47.892;9.970;2022-08-18T12:52:37;22.30;84.50
35463;DHT22;21578;47.892;9.970;2022-08-18T12:57:26;22.40;86.90
35463;DHT22;21578;47.892;9.970;2022-08-18T13:02:13;22.50;84.80
35463;DHT22;21578;47.892;9.970;2022-08-18T13:07:00;22.50;84.70
35463;DHT22;21578;47.892;9.970;2022-08-18T13:11:49;22.40;84.90
35463;DHT22;21578;47.892;9.970;2022-08-18T13:16:39;22.40;85.70
35463;DHT22;21578;47.892;9.970;2022-08-18T13:21:27;22.50;85.40
35463;DHT22;21578;47.892;9.970;2022-08-18T13:26:24;22.50;86.40
35463;DHT22;21578;47.892;9.970;2022-08-18T13:31:12;22.50;84.80
35463;DHT22;21578;47.892;9.970;2022-08-18T13:36:00;22.50;86.30
35463;DHT22;21578;47.892;9.970;2022-08-18T13:40:47;22.40;85.10
35463;DHT22;21578;47.892;9.970;2022-08-18T13:45:35;22.40;86.30
35463;DHT22;21578;47.892;9.970;2022-08-18T13:50:23;22.40;86.20
35463;DHT22;21578;47.892;9.970;2022-08-18T13:55:12;22.50;86.30
35463;DHT22;21578;47.892;9.970;2022-08-18T14:00:00;22.50;86.20
35463;DHT22;21578;47.892;9.970;2022-08-18T14:04:47;22.50;86.40
35463;DHT22;21578;47.892;9.970;2022-08-18T14:09:35;22.50;86.20
35463;DHT22;21578;47.892;9.970;2022-08-18T14:14:22;22.40;86.80
35463;DHT22;21578;47.892;9.970;2022-08-18T14:19:09;22.30;86.30
35463;DHT22;21578;47.892;9.970;2022-08-18T14:24:13;22.20;87.50
35463;DHT22;21578;47.892;9.970;2022-08-18T14:29:19;22.20;87.30
35463;DHT22;21578;47.892;9.970;2022-08-18T14:34:06;22.10;87.80
35463;DHT22;21578;47.892;9.970;2022-08-18T14:38:53;22.10;88.10
35463;DHT22;21578;47.892;9.970;2022-08-18T14:43:42;22.00;88.10
35463;DHT22;21578;47.892;9.970;2022-08-18T14:48:31;21.90;88.70
35463;DHT22;21578;47.892;9.970;2022-08-18T14:53:22;22.00;89.30
35463;DHT22;21578;47.892;9.970;2022-08-18T14:58:10;21.90;89.50
35463;DHT22;21578;47.892;9.970;2022-08-18T15:02:57;21.70;91.10
35463;DHT22;21578;47.892;9.970;2022-08-18T15:07:45;21.60;93.30
35463;DHT22;21578;47.892;9.970;2022-08-18T15:12:32;21.40;94.80
35463;DHT22;21578;47.892;9.970;2022-08-18T15:17:19;21.30;94.50
35463;DHT22;21578;47.892;9.970;2022-08-18T15:22:06;21.20;95.10
35463;DHT22;21578;47.892;9.970;2022-08-18T15:27:11;21.20;95.20
35463;DHT22;21578;47.892;9.970;2022-08-18T15:31:59;21.20;95.80
35463;DHT22;21578;47.892;9.970;2022-08-18T15:36:47;21.20;96.60
35463;DHT22;21578;47.892;9.970;2022-08-18T15:41:36;21.10;96.60
35463;DHT22;21578;47.892;9.970;2022-08-18T15:46:25;21.10;96.60
35463;DHT22;21578;47.892;9.970;2022-08-18T15:51:12;21.10;96.60
35463;DHT22;21578;47.892;9.970;2022-08-18T15:55:59;21.00;96.60
35463;DHT22;21578;47.892;9.970;2022-08-18T16:00:46;20.90;96.60
35463;DHT22;21578;47.892;9.970;2022-08-18T16:05:38;20.80;96.60
35463;DHT22;21578;47.892;9.970;2022-08-18T16:10:27;20.70;96.60
35463;DHT22;21578;47.892;9.970;2022-08-18T16:15:16;20.70;96.60
35463;DHT22;21578;47.892;9.970;2022-08-18T16:20:05;20.60;96.60
35463;DHT22;21578;47.892;9.970;2022-08-18T16:24:54;20.60;96.60
35463;DHT22;21578;47.892;9.970;2022-08-18T16:29:41;20.50;96.60
35463;DHT22;21578;47.892;9.970;2022-08-18T16:34:28;20.30;96.60
35463;DHT22;21578;47.892;9.970;2022-08-18T16:39:15;20.20;96.60
35463;DHT22;21578;47.892;9.970;2022-08-18T16:44:03;19.90;96.60
35463;DHT22;21578;47.892;9.970;2022-08-18T16:48:50;19.70;96.60
35463;DHT22;21578;47.892;9.970;2022-08-18T16:53:37;19.60;96.60
35463;DHT22;21578;47.892;9.970;2022-08-18T16:58:24;19.40;96.60
35463;DHT22;21578;47.892;9.970;2022-08-18T17:03:30;19.40;96.60
35463;DHT22;21578;47.892;9.970;2022-08-18T17:08:35;19.30;96.60
35463;DHT22;21578;47.892;9.970;2022-08-18T17:13:22;19.20;96.60
35463;DHT22;21578;47.892;9.970;2022-08-18T17:18:09;19.10;96.60
35463;DHT22;21578;47.892;9.970;2022-08-18T17:22:58;19.00;96.60
35463;DHT22;21578;47.892;9.970;2022-08-18T17:27:47;18.90;96.60
35463;DHT22;21578;47.892;9.970;2022-08-18T17:32:39;18.80;96.60
35463;DHT22;21578;47.892;9.970;2022-08-18T17:37:28;18.80;96.60
35463;DHT22;21578;47.892;9.970;2022-08-18T17:42:17;18.60;96.60
35463;DHT22;21578;47.892;9.970;2022-08-18T17:47:18;18.50;96.60
35463;DHT22;21578;47.892;9.970;2022-08-18T17:52:05;18.40;96.60
35463;DHT22;21578;47.892;9.970;2022-08-18T17:56:58;18.30;96.60
35463;DHT22;21578;47.892;9.970;2022-08-18T18:02:06;18.20;96.60
35463;DHT22;21578;47.892;9.970;2022-08-18T18:06:53;18.00;96.60
35463;DHT22;21578;47.892;9.970;2022-08-18T18:11:42;17.90;96.60
35463;DHT22;21578;47.892;9.970;2022-08-18T18:16:33;17.80;96.60
35463;DHT22;21578;47.892;9.970;2022-08-18T18:21:22;17.90;96.60
35463;DHT22;21578;47.892;9.970;2022-08-18T18:26:19;17.80;96.60
35463;DHT22;21578;47.892;9.970;2022-08-18T18:31:17;17.80;96.60
35463;DHT22;21578;47.892;9.970;2022-08-18T18:36:07;17.80;96.60
35463;DHT22;21578;47.892;9.970;2022-08-18T18:41:00;17.80;96.60
35463;DHT22;21578;47.892;9.970;2022-08-18T18:46:24;17.80;96.60
35463;DHT22;21578;47.892;9.970;2022-08-18T18:51:20;17.70;96.60
35463;DHT22;21578;47.892;9.970;2022-08-18T18:56:15;17.70;96.60
35463;DHT22;21578;47.892;9.970;2022-08-18T19:01:09;17.70;96.60
35463;DHT22;21578;47.892;9.970;2022-08-18T19:06:11;17.70;96.60
35463;DHT22;21578;47.892;9.970;2022-08-18T19:11:02;17.70;96.60
35463;DHT22;21578;47.892;9.970;2022-08-18T19:15:58;17.60;96.60
35463;DHT22;21578;47.892;9.970;2022-08-18T19:20:49;17.50;96.60
35463;DHT22;21578;47.892;9.970;2022-08-18T19:25:40;17.60;96.60
35463;DHT22;21578;47.892;9.970;2022-08-18T19:30:28;17.70;96.60
35463;DHT22;21578;47.892;9.970;2022-08-18T19:35:20;17.70;96.60
35463;DHT22;21578;47.892;9.970;2022-08-18T19:40:11;17.70;96.60
35463;DHT22;21578;47.892;9.970;2022-08-18T19:45:03;17.70;96.60
35463;DHT22;21578;47.892;9.970;2022-08-18T19:49:56;17.80;96.60
35463;DHT22;21578;47.892;9.970;2022-08-18T20:05:15;17.80;96.60
35463;DHT22;21578;47.892;9.970;2022-08-18T20:10:25;17.80;96.60
35463;DHT22;21578;47.892;9.970;2022-08-18T20:15:18;17.80;96.60
35463;DHT22;21578;47.892;9.970;2022-08-18T20:20:12;17.80;96.60
35463;DHT22;21578;47.892;9.970;2022-08-18T20:24:59;17.70;96.60
35463;DHT22;21578;47.892;9.970;2022-08-18T20:30:03;17.70;96.60
35463;DHT22;21578;47.892;9.970;2022-08-18T20:35:15;17.70;96.60
35463;DHT22;21578;47.892;9.970;2022-08-18T20:40:04;17.80;96.60
35463;DHT22;21578;47.892;9.970;2022-08-18T20:44:56;17.80;96.60
35463;DHT22;21578;47.892;9.970;2022-08-18T20:49:50;17.70;96.60
35463;DHT22;21578;47.892;9.970;2022-08-18T20:54:49;17.70;96.60
35463;DHT22;21578;47.892;9.970;2022-08-18T20:59:44;17.70;96.60
35463;DHT22;21578;47.892;9.970;2022-08-18T21:04:45;17.70;96.60
35463;DHT22;21578;47.892;9.970;2022-08-18T21:09:33;17.70;96.60
35463;DHT22;21578;47.892;9.970;2022-08-18T21:14:25;17.80;96.60
35463;DHT22;21578;47.892;9.970;2022-08-18T21:19:19;17.70;96.60
35463;DHT22;21578;47.892;9.970;2022-08-18T21:24:19;17.70;96.60
35463;DHT22;21578;47.892;9.970;2022-08-18T21:29:09;17.70;96.60
35463;DHT22;21578;47.892;9.970;2022-08-18T21:34:02;17.60;96.60
35463;DHT22;21578;47.892;9.970;2022-08-18T21:38:52;17.70;96.60
35463;DHT22;21578;47.892;9.970;2022-08-18T21:43:43;17.50;96.60
35463;DHT22;21578;47.892;9.970;2022-08-18T21:48:32;17.50;96.60
35463;DHT22;21578;47.892;9.970;2022-08-18T21:53:23;17.40;96.60
35463;DHT22;21578;47.892;9.970;2022-08-18T21:58:18;17.40;96.60
35463;DHT22;21578;47.892;9.970;2022-08-18T22:03:25;17.40;96.60
35463;DHT22;21578;47.892;9.970;2022-08-18T22:08:17;17.40;96.60
35463;DHT22;21578;47.892;9.970;2022-08-18T22:13:20;17.40;96.60
35463;DHT22;21578;47.892;9.970;2022-08-18T22:18:33;17.40;96.60
35463;DHT22;21578;47.892;9.970;2022-08-18T22:23:31;17.40;96.60
35463;DHT22;21578;47.892;9.970;2022-08-18T22:28:47;17.40;96.60
35463;DHT22;21578;47.892;9.970;2022-08-18T22:33:35;17.50;96.60
35463;DHT22;21578;47.892;9.970;2022-08-18T22:38:30;17.40;96.60
35463;DHT22;21578;47.892;9.970;2022-08-18T22:43:18;17.30;96.60
35463;DHT22;21578;47.892;9.970;2022-08-18T22:48:07;17.30;96.60
35463;DHT22;21578;47.892;9.970;2022-08-18T22:52:54;17.20;96.60
35463;DHT22;21578;47.892;9.970;2022-08-18T22:57:41;17.20;96.60
35463;DHT22;21578;47.892;9.970;2022-08-18T23:02:28;17.20;96.60
35463;DHT22;21578;47.892;9.970;2022-08-18T23:07:16;17.20;96.60
35463;DHT22;21578;47.892;9.970;2022-08-18T23:12:10;17.10;96.60
35463;DHT22;21578;47.892;9.970;2022-08-18T23:16:59;17.20;96.60
35463;DHT22;21578;47.892;9.970;2022-08-18T23:21:46;17.10;96.60
35463;DHT22;21578;47.892;9.970;2022-08-18T23:26:35;17.00;96.60
35463;DHT22;21578;47.892;9.970;2022-08-18T23:31:22;17.00;96.60
35463;DHT22;21578;47.892;9.970;2022-08-18T23:36:09;17.00;96.60
35463;DHT22;21578;47.892;9.970;2022-08-18T23:40:56;17.00;96.60
35463;DHT22;21578;47.892;9.970;2022-08-18T23:45:45;17.00;96.60
35463;DHT22;21578;47.892;9.970;2022-08-18T23:50:38;17.00;96.60
35463;DHT22;21578;47.892;9.970;2022-08-18T23:55:26;17.00;96.60
